Amery, Wisconsin
Current Conditions -  °F | °C
As of 2:35 AM on Saturday 20 Dec 2014 (Local Time) from KRNH Reporting Station
Overcast Overcast  
Wind Chill: 20°   Ceiling: 3000
Heat Index: 28°   Visibility: 10mi
Dew Point: 25°   Wind: 8mph
Humidity: 89%   Direction: 170°S
Pressure: 30.18"   Gusts: NA
Location:  45.31°N, 92.36°W
Report Text: KRNH 200835Z AUTO 17007KT 10SM SCT013 OVC030 M02/M04 A3018 RMK AO2 T10211037
Loading
Personal Weather Stations






























Interactive Weather Map New forecast layout! Learn more

10-Day Weather Forecast

Advertisements
Track Severe Weather on mobile